Time;durP1;ratioP1;P1;durP2;ratioP2;P2;SDS_P1;SDS_P2;PMS_P1;PMS_P2;Temp;Humidity;BMP_temperature;BMP_pressure;BME280_temperature;BME280_humidity;BME280_pressure;Samples;Min_cycle;Max_cycle;Signal;HPM_P1;HPM_P2
2023/08/25 00:01:53;;;;;;;0.90;0.90;;;;;;;21.58;86.92;96913.69;5042108;28;20055;-61
2023/08/25 00:04:19;;;;;;;0.90;0.90;;;;;;;21.51;86.93;96913.91;5040140;28;20061;-62
2023/08/25 00:06:46;;;;;;;0.80;0.80;;;;;;;21.51;87.39;96911.09;5041321;28;20603;-63
2023/08/25 00:09:13;;;;;;;0.80;0.80;;;;;;;21.53;87.20;96919.88;5041570;28;20061;-62
2023/08/25 00:11:39;;;;;;;0.88;0.88;;;;;;;21.51;86.70;96913.91;5041798;28;20420;-62
2023/08/25 00:14:06;;;;;;;0.80;0.80;;;;;;;21.45;86.65;96918.50;5041561;28;20224;-61
2023/08/25 00:16:33;;;;;;;0.88;0.88;;;;;;;21.48;86.70;96928.88;5041240;28;20051;-61
2023/08/25 00:18:59;;;;;;;0.90;0.90;;;;;;;20.92;90.35;96933.16;5039502;28;20061;-62
2023/08/25 00:21:26;;;;;;;0.80;0.80;;;;;;;21.09;90.50;96934.78;5040536;28;20075;-61
2023/08/25 00:23:53;;;;;;;0.90;0.90;;;;;;;20.85;90.31;96905.19;5041383;28;20057;-62
2023/08/25 00:26:20;;;;;;;0.80;0.80;;;;;;;21.25;89.24;96937.56;5040938;28;20404;-61
2023/08/25 00:28:47;;;;;;;0.80;0.80;;;;;;;21.34;87.55;96929.25;5039419;28;20443;-61
2023/08/25 00:31:13;;;;;;;0.90;0.90;;;;;;;19.25;87.81;96639.47;5040774;28;20049;-61
2023/08/25 00:33:49;;;;;;;0.82;0.82;;;;;;;20.62;88.24;96846.25;5041218;28;20061;-61
2023/08/25 00:36:16;;;;;;;0.90;0.90;;;;;;;20.85;89.04;96914.44;5041578;28;20049;-61
2023/08/25 00:38:42;;;;;;;0.80;0.80;;;;;;;20.86;89.56;96934.94;5041732;28;20140;-62
2023/08/25 00:41:09;;;;;;;0.88;0.88;;;;;;;20.61;89.95;96906.63;5041600;28;20332;-61
2023/08/25 00:43:38;;;;;;;0.82;0.82;;;;;;;20.92;89.39;96941.63;5042114;28;20049;-61
2023/08/25 00:46:05;;;;;;;0.80;0.80;;;;;;;20.47;89.85;96895.69;5028703;28;20075;-62
2023/08/25 00:48:31;;;;;;;0.90;0.90;;;;;;;20.77;89.54;96921.47;5041059;28;20052;-63
2023/08/25 00:50:58;;;;;;;0.85;0.85;;;;;;;20.78;88.40;96905.38;5040446;28;20048;-62
2023/08/25 00:53:25;;;;;;;0.80;0.80;;;;;;;20.40;89.46;96859.28;5040983;28;20401;-62
2023/08/25 00:55:53;;;;;;;0.80;0.80;;;;;;;20.39;89.80;96871.78;5040295;28;20512;-61
2023/08/25 00:58:20;;;;;;;0.80;0.80;;;;;;;20.77;89.81;96909.44;5039789;28;20081;-63
2023/08/25 01:00:47;;;;;;;0.90;0.90;;;;;;;20.69;89.73;96908.78;5038809;28;20053;-63
2023/08/25 01:03:14;;;;;;;0.90;0.90;;;;;;;19.09;88.88;96636.69;5040278;28;20072;-63
2023/08/25 01:05:40;;;;;;;0.80;0.80;;;;;;;20.45;87.79;96837.03;5039936;28;20382;-62
2023/08/25 01:08:08;;;;;;;0.90;0.90;;;;;;;20.87;87.11;96909.16;5039844;28;20053;-62
2023/08/25 01:10:59;;;;;;;0.88;0.88;;;;;;;20.74;87.93;96915.91;5039570;28;20053;-63
2023/08/25 01:14:01;;;;;;;0.80;0.80;;;;;;;19.97;94.06;96928.97;5039625;28;20063;-62
2023/08/25 01:16:35;;;;;;;0.85;0.85;;;;;;;19.76;97.48;96935.03;5037991;28;20512;-61
2023/08/25 01:19:05;;;;;;;0.80;0.80;;;;;;;19.69;97.98;96938.00;5040138;28;20047;-62
2023/08/25 01:21:35;;;;;;;0.80;0.80;;;;;;;19.80;97.99;96942.19;5039738;28;20049;-62
2023/08/25 01:24:28;;;;;;;0.70;0.70;;;;;;;19.97;97.59;96945.81;5039851;28;20417;-62
2023/08/25 01:26:56;;;;;;;0.80;0.80;;;;;;;20.09;97.08;96945.94;5039979;28;20088;-62
2023/08/25 01:29:22;;;;;;;0.70;0.70;;;;;;;20.04;96.33;96929.63;5038472;28;20060;-62
2023/08/25 01:31:49;;;;;;;0.80;0.80;;;;;;;19.77;96.08;96874.78;5038878;28;20049;-64
2023/08/25 01:34:16;;;;;;;0.80;0.80;;;;;;;20.02;95.65;96903.94;5039483;28;20052;-62
2023/08/25 01:36:55;;;;;;;0.77;0.77;;;;;;;20.11;94.66;96909.75;5041416;28;20060;-62
2023/08/25 01:39:25;;;;;;;0.80;0.80;;;;;;;20.47;93.48;96940.72;5041502;28;20052;-62
2023/08/25 01:41:57;;;;;;;0.80;0.80;;;;;;;20.55;92.73;96948.53;5042998;28;20049;-62
2023/08/25 01:44:27;;;;;;;0.90;0.90;;;;;;;20.48;92.50;96931.03;5044379;28;20128;-63
2023/08/25 01:47:00;;;;;;;0.80;0.80;;;;;;;20.20;92.60;96881.06;5044186;28;20573;-62
2023/08/25 01:49:28;;;;;;;0.80;0.80;;;;;;;20.57;91.84;96939.66;5042836;28;20065;-62
2023/08/25 01:51:55;;;;;;;0.80;0.80;;;;;;;20.62;92.02;96930.69;5044760;28;20059;-62
2023/08/25 01:54:22;;;;;;;0.80;0.80;;;;;;;20.51;92.71;96941.44;5042940;28;20057;-62
2023/08/25 01:56:48;;;;;;;0.80;0.80;;;;;;;20.57;92.10;96934.84;5042489;28;20106;-61
2023/08/25 01:59:15;;;;;;;0.80;0.80;;;;;;;20.56;92.02;96933.25;5044563;28;20130;-62
2023/08/25 02:01:42;;;;;;;0.80;0.80;;;;;;;20.48;92.63;96936.69;5044205;28;20098;-64
2023/08/25 02:04:09;;;;;;;0.80;0.80;;;;;;;20.47;92.22;96933.06;5044068;28;20049;-62
2023/08/25 02:06:36;;;;;;;0.90;0.90;;;;;;;20.12;91.07;96863.50;5044077;28;20052;-62
2023/08/25 02:09:03;;;;;;;0.90;0.90;;;;;;;20.75;90.52;96959.75;5043686;28;20087;-62
2023/08/25 02:11:30;;;;;;;0.80;0.80;;;;;;;20.83;89.83;96952.72;5042181;28;20056;-62
2023/08/25 02:13:56;;;;;;;0.75;0.75;;;;;;;20.95;89.22;96958.44;5043745;28;20947;-62
2023/08/25 02:16:23;;;;;;;0.80;0.80;;;;;;;21.07;88.35;96948.50;5043746;28;20148;-62
2023/08/25 02:18:50;;;;;;;0.88;0.88;;;;;;;21.05;87.90;96962.25;5043430;28;20122;-62
2023/08/25 02:21:17;;;;;;;0.90;0.90;;;;;;;20.64;87.78;96886.03;5043445;28;20559;-62
2023/08/25 02:23:43;;;;;;;0.88;0.88;;;;;;;20.98;88.68;96939.88;5043390;28;20049;-61
2023/08/25 02:26:10;;;;;;;0.80;0.80;;;;;;;20.77;87.66;96893.31;5044026;28;20057;-62
2023/08/25 02:28:37;;;;;;;0.95;0.95;;;;;;;20.83;87.04;96913.28;5042027;28;20060;-62
2023/08/25 02:31:03;;;;;;;0.80;0.80;;;;;;;20.99;88.22;96933.03;5042219;28;20057;-62
2023/08/25 02:33:30;;;;;;;0.90;0.90;;;;;;;20.72;88.32;96896.66;5043613;28;20843;-62
2023/08/25 02:35:57;;;;;;;0.90;0.90;;;;;;;21.14;87.08;96939.88;5041652;28;20334;-61
2023/08/25 02:38:23;;;;;;;0.90;0.90;;;;;;;21.05;86.72;96936.91;5043045;28;20049;-63
2023/08/25 02:40:50;;;;;;;0.70;0.70;;;;;;;21.00;86.94;96945.88;5042529;28;20045;-62
2023/08/25 02:43:17;;;;;;;0.80;0.80;;;;;;;21.06;87.17;96949.75;5042614;28;20136;-62
2023/08/25 02:45:43;;;;;;;0.90;0.90;;;;;;;20.14;92.59;96939.06;5042085;28;20543;-62
2023/08/25 02:48:10;;;;;;;0.90;0.90;;;;;;;19.89;96.34;96950.00;5040423;28;20536;-63
2023/08/25 02:50:37;;;;;;;0.80;0.80;;;;;;;20.12;94.82;96949.94;5041456;28;20060;-62
2023/08/25 02:53:04;;;;;;;0.80;0.80;;;;;;;20.21;93.70;96955.78;5041997;28;20128;-62
2023/08/25 02:55:30;;;;;;;0.70;0.70;;;;;;;20.21;93.76;96955.78;5040229;28;20056;-62
2023/08/25 02:57:57;;;;;;;0.80;0.80;;;;;;;19.96;93.22;96910.50;5041870;28;20075;-61
2023/08/25 03:00:24;;;;;;;0.80;0.80;;;;;;;20.24;93.83;96949.28;5041281;28;20495;-62
2023/08/25 03:02:51;;;;;;;0.80;0.80;;;;;;;20.12;92.85;96919.00;5041520;28;20057;-62
2023/08/25 03:05:19;;;;;;;0.90;0.90;;;;;;;20.17;93.45;96943.84;5041165;28;20053;-62
2023/08/25 03:07:46;;;;;;;0.80;0.80;;;;;;;20.27;93.19;96952.03;5041608;28;20084;-61
2023/08/25 03:10:13;;;;;;;0.85;0.85;;;;;;;19.33;97.97;96930.25;5040966;28;20549;-62
2023/08/25 03:12:40;;;;;;;0.80;0.80;;;;;;;19.44;100.00;96953.31;5040804;28;20049;-61
2023/08/25 03:15:07;;;;;;;0.90;0.90;;;;;;;19.72;99.21;96956.78;5040570;28;20049;-63
2023/08/25 03:17:34;;;;;;;0.90;0.90;;;;;;;19.89;98.55;96952.81;5037724;28;20535;-62
2023/08/25 03:20:02;;;;;;;0.90;0.90;;;;;;;19.72;96.91;96921.06;5039572;28;20140;-62
2023/08/25 03:22:29;;;;;;;0.88;0.88;;;;;;;19.96;96.57;96947.88;5040980;28;20163;-62
2023/08/25 03:24:56;;;;;;;0.80;0.80;;;;;;;20.03;96.54;96938.50;5040867;28;20504;-63
2023/08/25 03:27:22;;;;;;;0.80;0.80;;;;;;;19.87;96.99;96946.88;5041320;28;20057;-62
2023/08/25 03:29:49;;;;;;;0.82;0.82;;;;;;;20.03;96.16;96944.13;5041460;28;20049;-63
2023/08/25 03:32:16;;;;;;;0.80;0.80;;;;;;;20.07;94.89;96939.19;5041248;28;20293;-63
2023/08/25 03:34:42;;;;;;;0.90;0.90;;;;;;;20.17;94.55;96943.84;5041496;28;20041;-62
2023/08/25 03:37:11;;;;;;;0.80;0.80;;;;;;;19.84;94.33;96885.88;5041255;28;20051;-62
2023/08/25 03:39:38;;;;;;;0.80;0.80;;;;;;;20.10;94.21;96939.13;5040715;28;20045;-62
2023/08/25 03:42:05;;;;;;;0.80;0.80;;;;;;;20.24;93.66;96946.47;5030307;28;20045;-62
2023/08/25 03:44:32;;;;;;;0.75;0.75;;;;;;;20.30;92.50;96939.09;5020954;28;20049;-61
2023/08/25 03:46:58;;;;;;;0.90;0.90;;;;;;;20.37;91.30;96941.75;5027225;28;20106;-62
2023/08/25 03:49:28;;;;;;;0.80;0.80;;;;;;;20.29;91.14;96945.97;5040599;28;20056;-61
2023/08/25 03:51:56;;;;;;;0.90;0.90;;;;;;;20.35;91.04;96958.28;5040802;28;20178;-61
2023/08/25 03:54:23;;;;;;;0.80;0.80;;;;;;;20.44;89.90;96955.66;5040116;28;20059;-61
2023/08/25 03:56:50;;;;;;;0.80;0.80;;;;;;;20.50;89.67;96996.13;5040119;28;20356;-61
2023/08/25 03:59:16;;;;;;;0.90;0.90;;;;;;;20.45;90.51;96960.06;5039792;28;20057;-61
2023/08/25 04:01:43;;;;;;;0.90;0.90;;;;;;;20.38;91.20;96960.22;5038204;28;21038;-61
2023/08/25 04:04:10;;;;;;;0.80;0.80;;;;;;;20.28;91.73;96955.63;5039883;28;20045;-61
2023/08/25 04:06:37;;;;;;;0.80;0.80;;;;;;;20.28;92.63;96955.63;5039794;28;20056;-62
2023/08/25 04:09:03;;;;;;;0.80;0.80;;;;;;;20.49;91.64;96960.75;5039994;28;20053;-62
2023/08/25 04:11:30;;;;;;;0.80;0.80;;;;;;;20.51;91.19;96947.06;5039887;28;20515;-61
2023/08/25 04:13:57;;;;;;;0.82;0.82;;;;;;;20.56;89.47;96954.97;5040047;28;20451;-61
2023/08/25 04:16:24;;;;;;;0.73;0.73;;;;;;;20.56;90.08;96957.78;5040542;28;20045;-62
2023/08/25 04:18:50;;;;;;;0.80;0.80;;;;;;;19.64;88.95;96803.59;5040955;28;20052;-61
2023/08/25 04:21:17;;;;;;;0.90;0.90;;;;;;;20.85;87.76;96967.13;5040111;28;20057;-61
2023/08/25 04:23:43;;;;;;;0.80;0.80;;;;;;;20.87;86.90;96973.91;5040767;28;20071;-61
2023/08/25 04:26:10;;;;;;;0.77;0.77;;;;;;;20.35;89.42;96932.94;5040148;28;20076;-61
2023/08/25 04:28:37;;;;;;;0.80;0.80;;;;;;;20.27;92.08;96970.91;5041102;28;20049;-62
2023/08/25 04:31:03;;;;;;;0.80;0.80;;;;;;;20.32;92.27;96970.41;5036168;28;20410;-61
2023/08/25 04:33:30;;;;;;;0.90;0.90;;;;;;;20.55;91.92;96981.56;5022247;28;20041;-61
2023/08/25 04:35:57;;;;;;;0.80;0.80;;;;;;;20.65;90.29;96969.22;5021285;28;20045;-61
2023/08/25 04:38:23;;;;;;;0.90;0.90;;;;;;;20.78;88.89;96984.22;5021211;28;20045;-61
2023/08/25 04:40:50;;;;;;;0.90;0.90;;;;;;;20.89;87.93;96979.13;5021243;28;20184;-61
2023/08/25 04:43:17;;;;;;;0.80;0.80;;;;;;;20.74;87.75;96944.06;5021582;28;20134;-64
2023/08/25 04:45:44;;;;;;;0.80;0.80;;;;;;;21.02;87.14;96989.25;5021414;28;20540;-61
2023/08/25 04:48:10;;;;;;;0.90;0.90;;;;;;;21.18;87.18;96993.31;5036510;28;20061;-61
2023/08/25 04:50:37;;;;;;;0.80;0.80;;;;;;;21.02;85.67;96953.88;5039598;28;20092;-61
2023/08/25 04:53:04;;;;;;;1.00;1.00;;;;;;;20.90;85.75;96907.47;5041590;28;20048;-62
2023/08/25 04:55:30;;;;;;;0.90;0.90;;;;;;;21.48;85.17;96979.59;5041421;28;20436;-61
2023/08/25 04:57:57;;;;;;;0.90;0.90;;;;;;;21.75;83.25;96996.22;5041206;28;20128;-61
2023/08/25 05:00:24;;;;;;;1.00;1.00;;;;;;;21.96;82.58;96996.44;5040773;28;20135;-63
2023/08/25 05:02:51;;;;;;;0.80;0.80;;;;;;;22.12;81.76;96992.75;5038862;28;20486;-61
2023/08/25 05:05:17;;;;;;;0.80;0.80;;;;;;;22.28;81.77;96990.66;5040318;28;20041;-62
2023/08/25 05:07:45;;;;;;;0.90;0.90;;;;;;;22.49;80.68;96995.66;5040689;28;20052;-63
2023/08/25 05:10:12;;;;;;;0.95;0.95;;;;;;;22.77;78.51;96996.03;5039294;28;20053;-62
2023/08/25 05:12:40;;;;;;;1.00;1.00;;;;;;;22.91;77.76;96987.13;5041005;28;20056;-62
2023/08/25 05:15:07;;;;;;;0.98;0.98;;;;;;;23.16;76.00;96987.09;5044023;28;20367;-62
2023/08/25 05:17:34;;;;;;;1.02;1.02;;;;;;;23.28;75.54;97000.47;5044981;28;20045;-62
2023/08/25 05:20:01;;;;;;;0.95;0.95;;;;;;;23.32;75.29;96984.16;5045119;28;20045;-59
2023/08/25 05:22:28;;;;;;;1.13;1.13;;;;;;;23.13;74.42;96932.28;5044572;28;20048;-62
2023/08/25 05:24:55;;;;;;;1.10;1.10;;;;;;;23.64;74.56;96983.84;5044852;28;20466;-60
2023/08/25 05:27:21;;;;;;;1.02;1.02;;;;;;;23.92;72.87;96994.13;5044931;28;20056;-62
2023/08/25 05:29:49;;;;;;;1.00;1.00;;;;;;;23.95;72.47;96981.91;5044430;28;20534;-62
2023/08/25 05:32:15;;;;;;;1.00;1.00;;;;;;;24.22;71.45;97001.94;5044689;28;20462;-62
2023/08/25 05:34:42;;;;;;;1.13;1.13;;;;;;;24.23;71.22;96974.44;5044424;28;20071;-63
2023/08/25 05:37:09;;;;;;;1.00;1.00;;;;;;;24.48;70.95;96989.22;5029151;28;20053;-61
2023/08/25 05:39:36;;;;;;;1.20;1.20;;;;;;;24.75;69.21;96994.28;5044587;28;20488;-61
2023/08/25 05:42:02;;;;;;;1.13;1.13;;;;;;;24.79;69.40;97000.56;5044184;28;20049;-63
2023/08/25 05:44:29;;;;;;;1.20;1.20;;;;;;;24.93;68.70;97000.00;5044296;28;20479;-62
2023/08/25 05:46:57;;;;;;;1.20;1.20;;;;;;;24.98;68.56;97002.25;5043735;28;20087;-61
2023/08/25 05:49:23;;;;;;;1.30;1.30;;;;;;;25.01;67.86;96982.25;5040558;28;20551;-60
2023/08/25 05:51:51;;;;;;;1.30;1.30;;;;;;;25.38;66.84;97002.25;5041712;28;20056;-59
2023/08/25 05:54:18;;;;;;;1.27;1.27;;;;;;;24.81;67.34;96904.56;5041816;28;20077;-60
2023/08/25 05:56:45;;;;;;;1.40;1.40;;;;;;;25.56;67.49;97005.13;5042876;28;20076;-71
2023/08/25 05:59:11;;;;;;;1.30;1.30;;;;;;;24.94;66.85;96934.34;5041327;28;20531;-64
2023/08/25 06:01:38;;;;;;;1.20;1.20;;;;;;;25.46;65.73;96960.97;5041657;28;20053;-66
2023/08/25 06:04:05;;;;;;;1.20;1.20;;;;;;;25.57;64.79;96958.47;5040970;28;20051;-70
2023/08/25 06:06:32;;;;;;;1.38;1.38;;;;;;;25.44;64.36;96943.63;5043876;28;20574;-60
2023/08/25 06:08:59;;;;;;;1.25;1.25;;;;;;;25.88;64.33;97013.03;5040296;28;20049;-61
2023/08/25 06:11:25;;;;;;;1.38;1.38;;;;;;;25.67;66.54;97008.31;5040852;28;20590;-74
2023/08/25 06:13:52;;;;;;;1.50;1.50;;;;;;;25.82;66.15;96997.91;5042625;28;20435;-71
2023/08/25 06:16:19;;;;;;;1.50;1.50;;;;;;;25.26;64.96;96916.00;5041729;28;20132;-63
2023/08/25 06:18:45;;;;;;;1.40;1.40;;;;;;;25.88;65.89;97008.16;5041947;28;20059;-62
2023/08/25 06:21:12;;;;;;;1.45;1.45;;;;;;;25.96;63.61;96974.56;5041640;28;20164;-70
2023/08/25 06:23:39;;;;;;;1.48;1.48;;;;;;;26.23;61.83;96977.41;5042063;28;20067;-63
2023/08/25 06:26:06;;;;;;;1.52;1.52;;;;;;;26.55;61.91;96976.72;5042197;28;20045;-68
2023/08/25 06:28:33;;;;;;;1.50;1.50;;;;;;;26.47;63.87;96938.53;5040816;28;20079;-71
2023/08/25 06:31:00;;;;;;;1.65;1.65;;;;;;;26.77;63.63;96970.84;5039669;28;20072;-69
2023/08/25 06:33:29;;;;;;;1.40;1.40;;;;;;;26.78;63.66;96970.34;5039649;28;20045;-63
2023/08/25 06:35:57;;;;;;;1.40;1.40;;;;;;;26.89;62.45;97001.91;5038898;28;20049;-65
2023/08/25 06:38:24;;;;;;;1.58;1.58;;;;;;;26.40;63.34;96992.84;5041262;28;20053;-67
2023/08/25 06:40:52;;;;;;;1.35;1.35;;;;;;;26.71;63.48;97004.81;5036590;28;20445;-61
2023/08/25 06:43:19;;;;;;;1.60;1.60;;;;;;;26.37;63.15;96945.50;5024524;28;20053;-60
2023/08/25 06:45:46;;;;;;;1.50;1.50;;;;;;;26.22;64.31;96967.31;5034665;28;20555;-67
2023/08/25 06:48:13;;;;;;;1.30;1.30;;;;;;;26.39;64.78;97002.63;5041178;28;20053;-68
2023/08/25 06:50:40;;;;;;;1.30;1.30;;;;;;;26.16;63.07;96952.19;5041114;28;20464;-66
2023/08/25 06:53:07;;;;;;;1.45;1.45;;;;;;;26.74;62.69;96995.34;5041433;28;20052;-68
2023/08/25 06:55:34;;;;;;;1.30;1.30;;;;;;;26.90;60.42;96966.53;5041400;28;20160;-68
2023/08/25 06:58:02;;;;;;;1.63;1.63;;;;;;;27.39;59.26;96983.22;5040897;28;20321;-73
2023/08/25 07:00:29;;;;;;;1.30;1.30;;;;;;;26.74;59.51;96921.44;5041158;28;20045;-67
2023/08/25 07:02:56;;;;;;;1.70;1.70;;;;;;;26.94;59.58;96964.28;5041457;28;20045;-61
2023/08/25 07:05:24;;;;;;;1.35;1.35;;;;;;;27.14;58.46;96973.03;5039122;28;20049;-68
2023/08/25 07:07:53;;;;;;;1.48;1.48;;;;;;;27.58;56.84;96950.53;5041097;28;20055;-69
2023/08/25 07:10:20;;;;;;;1.50;1.50;;;;;;;27.66;56.75;96915.50;5040157;28;20049;-63
2023/08/25 07:12:48;;;;;;;1.73;1.73;;;;;;;28.19;55.18;96949.72;5041382;28;20045;-72
2023/08/25 07:15:15;;;;;;;1.50;1.50;;;;;;;28.73;53.42;96983.41;5050181;28;20146;-65
2023/08/25 07:17:41;;;;;;;1.50;1.50;;;;;;;27.58;53.84;96831.78;5039209;28;20517;-71
2023/08/25 07:20:09;;;;;;;1.55;1.55;;;;;;;28.70;53.27;96986.44;5041640;28;20053;-77
2023/08/25 07:22:36;;;;;;;1.65;1.65;;;;;;;28.20;53.17;96870.75;5042419;28;20049;-66
2023/08/25 07:25:03;;;;;;;1.45;1.45;;;;;;;29.03;52.60;96978.44;5041897;28;20090;-75
2023/08/25 07:27:30;;;;;;;1.60;1.60;;;;;;;28.89;52.27;96950.72;5041712;28;20048;-74
2023/08/25 07:29:58;;;;;;;1.77;1.77;;;;;;;29.00;52.84;96968.00;5041708;28;20057;-64
2023/08/25 07:32:24;;;;;;;1.90;1.90;;;;;;;28.20;52.97;96847.94;5040066;28;20048;-61
2023/08/25 07:34:55;;;;;;;1.65;1.65;;;;;;;28.97;51.59;96900.53;5040645;28;20641;-64
2023/08/25 07:37:22;;;;;;;1.60;1.60;;;;;;;29.48;51.31;96966.44;5040039;28;20504;-62
2023/08/25 07:39:51;;;;;;;1.90;1.90;;;;;;;29.69;51.06;96945.22;5039408;28;20041;-63
2023/08/25 07:42:18;;;;;;;1.52;1.52;;;;;;;29.54;49.83;96893.84;5039619;28;20049;-66
2023/08/25 07:44:47;;;;;;;1.77;1.77;;;;;;;30.06;49.28;96963.34;5039822;28;20055;-67
2023/08/25 07:47:13;;;;;;;1.50;1.50;;;;;;;30.06;48.81;96937.63;5041032;28;20061;-62
2023/08/25 07:49:40;;;;;;;1.90;1.90;;;;;;;29.79;49.02;96914.44;5039504;28;20052;-65
2023/08/25 07:52:07;;;;;;;1.60;1.60;;;;;;;29.93;48.98;96894.34;5036093;28;20079;-63
2023/08/25 07:54:34;;;;;;;1.85;1.85;;;;;;;29.76;50.15;96939.06;5045297;28;20049;-69
2023/08/25 07:57:01;;;;;;;1.67;1.67;;;;;;;30.48;48.87;96960.69;5061323;28;20052;-67
2023/08/25 07:59:27;;;;;;;1.73;1.73;;;;;;;30.78;47.51;96962.06;5043658;28;20120;-68
2023/08/25 08:01:54;;;;;;;1.80;1.80;;;;;;;30.85;47.50;96955.88;5039704;28;20060;-69
2023/08/25 08:04:21;;;;;;;1.83;1.83;;;;;;;30.72;46.63;96900.34;5039480;28;20444;-69
2023/08/25 08:06:48;;;;;;;1.83;1.83;;;;;;;31.32;46.73;96953.63;5041462;28;20060;-71
2023/08/25 08:09:15;;;;;;;1.60;1.60;;;;;;;31.20;45.99;96951.97;5040573;28;20084;-66
2023/08/25 08:11:42;;;;;;;1.60;1.60;;;;;;;31.32;45.97;96937.25;5039046;28;20045;-67
2023/08/25 08:14:09;;;;;;;2.00;2.00;;;;;;;31.40;45.85;96943.28;5021844;28;20072;-60
2023/08/25 08:16:35;;;;;;;2.00;2.00;;;;;;;31.67;45.39;96956.97;5038877;28;20064;-68
2023/08/25 08:19:05;;;;;;;1.63;1.63;;;;;;;30.87;45.39;96838.06;5040468;28;20572;-69
2023/08/25 08:21:32;;;;;;;1.80;1.80;;;;;;;31.34;46.27;96888.06;5040427;28;20055;-60
2023/08/25 08:24:00;;;;;;;1.60;1.60;;;;;;;32.03;45.48;96938.94;5041414;28;20496;-68
2023/08/25 08:26:27;;;;;;;1.77;1.77;;;;;;;32.13;44.41;96928.81;5037471;28;20049;-60
2023/08/25 08:28:54;;;;;;;1.83;1.83;;;;;;;31.71;43.76;96868.72;5041047;28;20053;-60
2023/08/25 08:31:21;;;;;;;1.88;1.88;;;;;;;31.75;42.89;96849.19;5044185;28;20048;-59
2023/08/25 08:33:48;;;;;;;1.65;1.65;;;;;;;32.02;43.23;96931.63;5044396;28;20074;-69
2023/08/25 08:36:16;;;;;;;1.98;1.98;;;;;;;31.82;43.01;96854.44;5040603;28;20147;-62
2023/08/25 08:38:43;;;;;;;1.92;1.92;;;;;;;32.32;42.67;96924.16;5041141;28;20108;-71
2023/08/25 08:41:11;;;;;;;1.80;1.80;;;;;;;31.25;45.76;96926.25;5038587;28;20088;-65
2023/08/25 08:43:42;;;;;;;1.92;1.92;;;;;;;31.87;45.08;96920.38;5039834;28;20056;-70
2023/08/25 08:46:13;;;;;;;2.00;2.00;;;;;;;32.22;44.33;96922.81;5038993;28;20041;-62
2023/08/25 08:48:40;;;;;;;1.98;1.98;;;;;;;31.10;45.81;96838.97;5041158;28;20483;-62
2023/08/25 08:51:08;;;;;;;2.13;2.13;;;;;;;31.81;45.31;96927.34;5044253;28;20052;-62
2023/08/25 08:53:35;;;;;;;1.73;1.73;;;;;;;31.98;45.97;96936.84;5024837;28;20103;-63
2023/08/25 08:56:02;;;;;;;1.90;1.90;;;;;;;31.72;45.36;96853.09;5034519;28;20571;-65
2023/08/25 08:58:29;;;;;;;1.80;1.80;;;;;;;32.06;45.24;96914.97;5043776;28;20132;-70
2023/08/25 09:00:56;;;;;;;2.13;2.13;;;;;;;31.49;45.50;96840.00;5042531;28;20119;-66
2023/08/25 09:03:30;;;;;;;1.80;1.80;;;;;;;31.63;44.21;96813.97;5045699;28;20052;-64
2023/08/25 09:06:03;;;;;;;1.63;1.63;;;;;;;32.20;44.83;96877.47;5043809;28;20055;-61
2023/08/25 09:08:32;;;;;;;1.80;1.80;;;;;;;32.39;43.58;96829.03;5044165;28;20580;-64
2023/08/25 09:11:01;;;;;;;1.88;1.88;;;;;;;33.00;43.08;96913.06;5044079;28;20641;-62
2023/08/25 09:13:31;;;;;;;1.77;1.77;;;;;;;32.85;42.91;96866.56;5043189;28;20822;-59
2023/08/25 09:15:58;;;;;;;1.90;1.90;;;;;;;33.36;41.88;96914.81;5044579;28;20555;-72
2023/08/25 09:18:34;;;;;;;2.10;2.10;;;;;;;33.27;40.84;96908.56;5031690;28;20065;-65
2023/08/25 09:22:11;;;;;;;2.50;2.40;;;;;;;33.34;40.68;96908.81;5075062;27;21263;-60
2023/08/25 09:24:38;;;;;;;2.13;2.13;;;;;;;32.20;40.95;96733.34;5092647;27;20048;-67
2023/08/25 09:27:05;;;;;;;1.92;1.92;;;;;;;33.32;40.71;96879.81;5077690;28;20048;-66
2023/08/25 09:29:42;;;;;;;2.08;2.08;;;;;;;33.83;39.92;96887.00;5076047;28;20450;-64
2023/08/25 09:32:15;;;;;;;2.13;2.13;;;;;;;34.08;39.66;96896.59;5077529;28;20148;-61
2023/08/25 09:34:42;;;;;;;2.38;2.35;;;;;;;34.10;38.32;96882.47;5075843;28;20048;-64
2023/08/25 09:37:09;;;;;;;2.28;2.28;;;;;;;34.22;37.63;96889.69;5076487;28;20052;-63
2023/08/25 09:39:43;;;;;;;2.22;2.22;;;;;;;33.89;38.56;96890.63;5072748;28;20040;-62
2023/08/25 09:42:10;;;;;;;2.58;2.47;;;;;;;34.07;39.10;96887.16;5078254;28;20573;-62
2023/08/25 09:44:38;;;;;;;2.00;2.00;;;;;;;32.92;41.05;96886.19;5078332;28;20044;-62
2023/08/25 09:47:09;;;;;;;1.85;1.85;;;;;;;33.66;39.87;96887.06;5058410;28;20219;-67
2023/08/25 09:49:40;;;;;;;2.08;2.08;;;;;;;33.89;37.93;96855.34;5077484;28;20385;-64
2023/08/25 09:52:07;;;;;;;2.50;2.40;;;;;;;34.01;38.66;96874.13;5072398;28;20072;-64
2023/08/25 09:54:34;;;;;;;1.98;1.98;;;;;;;33.02;40.44;96806.31;5062005;28;20147;-61
2023/08/25 09:57:02;;;;;;;2.13;2.13;;;;;;;33.30;39.06;96781.94;5062706;28;20048;-65
2023/08/25 09:59:29;;;;;;;2.08;2.08;;;;;;;33.87;38.25;96858.75;5060444;28;20565;-61
2023/08/25 10:01:57;;;;;;;2.05;2.05;;;;;;;34.10;38.33;96856.56;5078529;28;20058;-61
2023/08/25 10:04:24;;;;;;;2.13;2.13;;;;;;;33.85;38.67;96780.09;5077553;28;20048;-69
2023/08/25 10:06:52;;;;;;;2.25;2.25;;;;;;;34.44;37.88;96829.16;5078260;28;20141;-64
2023/08/25 10:09:20;;;;;;;2.20;2.20;;;;;;;33.68;39.01;96824.09;5077271;28;20500;-60
2023/08/25 10:11:50;;;;;;;2.08;2.08;;;;;;;32.14;39.34;96640.81;5077835;28;20078;-61
2023/08/25 10:14:20;;;;;;;1.80;1.80;;;;;;;33.22;39.49;96832.63;5077443;28;20055;-62
2023/08/25 10:16:52;;;;;;;2.00;2.00;;;;;;;33.70;39.36;96789.84;5060683;28;20079;-64
2023/08/25 10:19:28;;;;;;;1.80;1.80;;;;;;;34.33;39.78;96849.34;5058597;28;20136;-65
2023/08/25 10:22:01;;;;;;;1.95;1.95;;;;;;;34.40;39.16;96843.06;5072686;28;20586;-63
2023/08/25 10:24:30;;;;;;;2.38;2.35;;;;;;;34.38;39.05;96816.88;5069898;28;20131;-65
2023/08/25 10:26:58;;;;;;;2.03;2.03;;;;;;;33.44;39.14;96757.88;5074469;28;20055;-66
2023/08/25 10:29:25;;;;;;;1.90;1.90;;;;;;;33.85;39.71;96828.97;5026668;28;20043;-68
2023/08/25 10:32:00;;;;;;;1.90;1.90;;;;;;;33.99;39.84;96773.25;5051843;28;20449;-67
2023/08/25 10:34:31;;;;;;;2.20;2.20;;;;;;;34.03;40.63;96831.25;5012978;28;20148;-60
2023/08/25 10:37:07;;;;;;;1.92;1.92;;;;;;;34.63;38.88;96832.91;5042543;28;20152;-67
2023/08/25 10:39:47;;;;;;;2.03;2.03;;;;;;;35.11;38.04;96828.03;5040934;28;20056;-64
2023/08/25 10:42:24;;;;;;;2.08;2.08;;;;;;;34.66;37.72;96791.56;5042529;28;20049;-71
2023/08/25 10:45:00;;;;;;;1.95;1.95;;;;;;;33.99;38.24;96802.00;5030518;28;20514;-65
2023/08/25 10:47:29;;;;;;;1.80;1.80;;;;;;;34.31;37.06;96823.19;5015596;28;20850;-62
2023/08/25 10:49:59;;;;;;;2.20;2.20;;;;;;;33.99;37.47;96758.88;5019371;28;20110;-66
2023/08/25 10:52:26;;;;;;;1.70;1.70;;;;;;;34.19;37.15;96815.97;5043966;28;20144;-63
2023/08/25 10:54:53;;;;;;;1.70;1.70;;;;;;;34.54;36.93;96807.38;5043138;28;20049;-64
2023/08/25 10:57:26;;;;;;;2.05;2.05;;;;;;;34.73;37.01;96808.25;5043506;28;20345;-62
2023/08/25 11:00:17;;;;;;;1.73;1.73;;;;;;;34.67;36.02;96770.84;5029815;28;20110;-61
2023/08/25 11:02:43;;;;;;;1.92;1.92;;;;;;;34.89;36.49;96810.19;5044066;28;20122;-63
2023/08/25 11:05:29;;;;;;;1.90;1.90;;;;;;;35.47;35.44;96807.75;5031306;28;20049;-61
2023/08/25 11:07:56;;;;;;;2.10;2.10;;;;;;;35.60;35.70;96799.97;5003949;28;20116;-65
2023/08/25 11:10:24;;;;;;;1.90;1.90;;;;;;;35.34;35.89;96798.97;5020977;28;20069;-65
2023/08/25 11:12:55;;;;;;;2.00;2.00;;;;;;;34.84;35.74;96716.00;5021552;28;20095;-60
2023/08/25 11:15:37;;;;;;;1.95;1.95;;;;;;;35.16;34.79;96734.22;5023385;28;20049;-72
2023/08/25 11:18:05;;;;;;;2.28;2.28;;;;;;;35.59;34.76;96809.16;5004090;28;20157;-62
2023/08/25 11:20:43;;;;;;;2.00;2.00;;;;;;;35.99;34.08;96794.47;5024766;28;20069;-64
2023/08/25 11:23:10;;;;;;;2.20;2.20;;;;;;;36.24;34.23;96787.28;5024891;28;20069;-61
2023/08/25 11:25:46;;;;;;;2.10;2.10;;;;;;;36.30;33.66;96764.91;5025401;28;20137;-63
2023/08/25 11:28:13;;;;;;;2.15;2.15;;;;;;;36.95;32.52;96795.28;5007813;28;20491;-64
2023/08/25 11:30:40;;;;;;;2.25;2.25;;;;;;;36.47;33.38;96710.56;5015097;28;20054;-62
2023/08/25 11:33:08;;;;;;;2.20;2.20;;;;;;;36.53;33.24;96777.63;5005162;28;20046;-60
2023/08/25 11:35:35;;;;;;;2.10;2.10;;;;;;;36.13;33.33;96758.59;5027580;28;20055;-63
2023/08/25 11:38:02;;;;;;;2.22;2.22;;;;;;;36.12;34.38;96780.09;5042973;28;20056;-59
2023/08/25 11:40:30;;;;;;;2.10;2.10;;;;;;;35.58;34.40;96785.34;5027687;28;20051;-61